createdAt,value
2023-09-23T00:00:48.757Z,74.36
2023-09-23T00:03:46.540Z,74.29
2023-09-23T00:06:44.344Z,74.33
2023-09-23T00:09:42.535Z,74.35
2023-09-23T00:12:39.944Z,74.57
2023-09-23T00:15:37.653Z,74.65
2023-09-23T00:18:35.284Z,74.63
2023-09-23T00:21:33.017Z,75.02
2023-09-23T00:24:30.507Z,74.92
2023-09-23T00:27:28.941Z,75.27
2023-09-23T00:30:27.831Z,75.53
2023-09-23T00:33:27.045Z,75.21
2023-09-23T00:36:26.156Z,74.81
2023-09-23T00:39:23.825Z,74.69
2023-09-23T00:42:21.468Z,74.61
2023-09-23T00:45:23.465Z,74.75
2023-09-23T00:48:23.029Z,74.92
2023-09-23T00:51:22.516Z,74.35
2023-09-23T00:54:23.014Z,73.85
2023-09-23T00:57:20.406Z,74.23
2023-09-23T01:00:26.305Z,74.43
2023-09-23T01:03:24.177Z,74.59
2023-09-23T01:06:23.465Z,74.66
2023-09-23T01:09:23.396Z,74.56
2023-09-23T01:12:20.941Z,74.56
2023-09-23T01:15:19.653Z,74.57
2023-09-23T01:18:17.046Z,74.64
2023-09-23T01:21:14.641Z,74.46
2023-09-23T01:24:12.026Z,74.47
2023-09-23T01:27:10.173Z,74.60
2023-09-23T01:30:07.554Z,74.58
2023-09-23T01:33:06.857Z,74.60
2023-09-23T01:36:04.836Z,74.58
2023-09-23T01:39:06.197Z,74.55
2023-09-23T01:42:03.596Z,74.25
2023-09-23T01:45:01.232Z,74.50
2023-09-23T01:47:59.113Z,74.54
2023-09-23T01:50:58.467Z,74.80
2023-09-23T01:53:56.692Z,75.12
2023-09-23T01:56:54.782Z,74.95
2023-09-23T01:59:52.224Z,75.29
2023-09-23T02:02:50.696Z,75.31
2023-09-23T02:05:48.355Z,75.23
2023-09-23T02:08:46.135Z,75.27
2023-09-23T02:11:43.646Z,75.61
2023-09-23T02:14:41.351Z,75.60
2023-09-23T02:17:38.826Z,75.66
2023-09-23T02:20:37.503Z,76.09
2023-09-23T02:23:34.895Z,76.40
2023-09-23T02:26:32.494Z,76.59
2023-09-23T02:29:30.825Z,76.89
2023-09-23T02:32:28.552Z,76.91
2023-09-23T02:35:26.547Z,77.27
2023-09-23T02:38:24.569Z,77.50
2023-09-23T02:41:23.726Z,77.57
2023-09-23T02:44:21.516Z,77.50
2023-09-23T02:47:19.638Z,77.56
2023-09-23T02:50:19.401Z,77.77
2023-09-23T02:53:17.040Z,77.98
2023-09-23T02:56:16.688Z,78.62
2023-09-23T02:59:15.193Z,78.70
2023-09-23T03:02:21.784Z,78.84
2023-09-23T03:05:19.450Z,78.88
2023-09-23T03:08:17.170Z,79.17
2023-09-23T03:11:19.212Z,79.14
2023-09-23T03:14:19.869Z,79.44
2023-09-23T03:17:23.399Z,79.06
2023-09-23T03:20:23.683Z,79.64
2023-09-23T03:23:22.033Z,79.62
2023-09-23T03:26:19.452Z,80.06
2023-09-23T03:29:19.927Z,80.21
2023-09-23T03:32:17.769Z,80.22
2023-09-23T03:35:18.885Z,80.31
2023-09-23T03:38:16.947Z,80.67
2023-09-23T03:41:14.784Z,80.88
2023-09-23T03:44:12.618Z,80.95
2023-09-23T03:47:10.069Z,81.42
2023-09-23T03:50:09.029Z,81.30
2023-09-23T03:53:09.304Z,81.53
2023-09-23T03:56:07.811Z,81.69
2023-09-23T03:59:07.322Z,81.88
2023-09-23T04:02:06.477Z,81.87
2023-09-23T04:05:04.589Z,81.82
2023-09-23T04:08:02.062Z,81.25
2023-09-23T04:11:00.014Z,81.51
2023-09-23T04:13:58.459Z,81.78
2023-09-23T04:16:56.175Z,82.18
2023-09-23T04:19:54.931Z,82.27
2023-09-23T04:22:52.794Z,82.16
2023-09-23T04:25:50.987Z,82.44
2023-09-23T04:28:49.423Z,82.60
2023-09-23T04:31:47.090Z,82.63
2023-09-23T04:34:44.969Z,82.75
2023-09-23T04:37:42.582Z,83.09
2023-09-23T04:40:41.008Z,83.18
2023-09-23T04:43:39.158Z,83.27
2023-09-23T04:46:37.387Z,83.19
2023-09-23T04:49:35.439Z,83.30
2023-09-23T04:52:33.024Z,83.22
2023-09-23T04:55:30.857Z,83.11
2023-09-23T04:58:28.258Z,83.32
2023-09-23T05:01:25.967Z,83.10
2023-09-23T05:04:23.543Z,83.31
2023-09-23T05:07:21.324Z,83.26
2023-09-23T05:10:19.728Z,83.23
2023-09-23T05:13:19.276Z,83.41
2023-09-23T05:16:17.843Z,83.42
2023-09-23T05:19:16.183Z,83.40
2023-09-23T05:22:14.305Z,83.15
2023-09-23T05:25:13.117Z,83.20
2023-09-23T05:28:11.538Z,83.40
2023-09-23T05:31:09.278Z,83.66
2023-09-23T05:34:07.777Z,83.53
2023-09-23T05:37:06.058Z,83.06
2023-09-23T05:40:09.895Z,82.75
2023-09-23T05:43:07.950Z,82.69
2023-09-23T05:46:08.176Z,82.89
2023-09-23T05:49:06.740Z,82.81
2023-09-23T05:52:04.220Z,82.49
2023-09-23T05:55:03.245Z,82.60
2023-09-23T05:58:00.717Z,82.57
2023-09-23T06:00:58.529Z,82.57
2023-09-23T06:03:57.040Z,82.68
2023-09-23T06:06:56.408Z,82.56
2023-09-23T06:09:54.184Z,82.87
2023-09-23T06:12:51.797Z,83.10
2023-09-23T06:15:49.198Z,82.75
2023-09-23T06:18:46.992Z,82.48
2023-09-23T06:21:44.415Z,82.89
2023-09-23T06:24:42.634Z,82.77
2023-09-23T06:27:40.027Z,82.63
2023-09-23T06:30:37.752Z,82.68
2023-09-23T06:33:35.224Z,82.63
2023-09-23T06:36:32.962Z,82.49
2023-09-23T06:39:30.396Z,82.65
2023-09-23T06:42:28.097Z,82.82
2023-09-23T06:45:25.490Z,82.83
2023-09-23T06:48:23.188Z,82.68
2023-09-23T06:51:20.607Z,82.57
2023-09-23T06:54:18.204Z,82.71
2023-09-23T06:57:15.922Z,82.53
2023-09-23T07:00:13.406Z,82.53
2023-09-23T07:03:11.214Z,82.53
2023-09-23T07:06:09.009Z,82.06
2023-09-23T07:09:06.896Z,81.82
2023-09-23T07:12:04.656Z,81.92
2023-09-23T07:15:02.040Z,81.73
2023-09-23T07:17:59.775Z,81.87
2023-09-23T07:20:57.202Z,81.77
2023-09-23T07:23:54.877Z,82.00
2023-09-23T07:26:52.280Z,82.42
2023-09-23T07:29:49.855Z,82.42
2023-09-23T07:32:47.303Z,82.11
2023-09-23T07:35:46.048Z,82.01
2023-09-23T07:38:43.457Z,81.54
2023-09-23T07:41:41.014Z,81.81
2023-09-23T07:44:38.439Z,81.93
2023-09-23T07:47:36.260Z,82.06
2023-09-23T07:50:34.594Z,82.05
2023-09-23T07:53:32.346Z,82.11
2023-09-23T07:56:29.807Z,81.49
2023-09-23T07:59:27.771Z,81.55
2023-09-23T08:02:25.614Z,81.21
2023-09-23T08:05:25.355Z,80.89
2023-09-23T08:08:23.359Z,80.76
2023-09-23T08:11:20.926Z,80.47
2023-09-23T08:14:18.401Z,80.11
2023-09-23T08:17:16.581Z,79.71
2023-09-23T08:20:21.394Z,79.35
2023-09-23T08:23:18.920Z,79.39
2023-09-23T08:26:17.264Z,79.26
2023-09-23T08:29:15.763Z,79.27
2023-09-23T08:32:13.411Z,79.07
2023-09-23T08:35:12.195Z,79.05
2023-09-23T08:38:09.739Z,78.83
2023-09-23T08:41:08.379Z,78.39
2023-09-23T08:44:05.857Z,78.53
2023-09-23T08:47:03.660Z,77.98
2023-09-23T08:50:01.100Z,77.82
2023-09-23T08:52:58.781Z,77.54
2023-09-23T08:55:56.499Z,77.38
2023-09-23T08:58:53.961Z,76.90
2023-09-23T09:01:51.681Z,76.48
2023-09-23T09:04:49.165Z,76.30
2023-09-23T09:07:46.786Z,76.19
2023-09-23T09:10:44.509Z,76.20
2023-09-23T09:13:42.202Z,75.41
2023-09-23T09:16:40.323Z,75.47
2023-09-23T09:19:41.117Z,74.98
2023-09-23T09:22:39.209Z,74.76
2023-09-23T09:25:36.971Z,74.62
2023-09-23T09:28:34.724Z,74.47
2023-09-23T09:31:32.163Z,74.15
2023-09-23T09:34:29.946Z,74.08
2023-09-23T09:37:28.115Z,73.74
2023-09-23T09:40:25.800Z,74.01
2023-09-23T09:43:23.200Z,73.44
2023-09-23T09:46:22.312Z,73.13
2023-09-23T09:49:19.717Z,73.31
2023-09-23T09:52:17.362Z,72.90
2023-09-23T09:55:17.082Z,72.95
2023-09-23T09:58:14.864Z,72.81
2023-09-23T10:01:14.126Z,72.41
2023-09-23T10:04:12.761Z,71.87
2023-09-23T10:07:10.151Z,71.57
2023-09-23T10:10:07.764Z,71.24
2023-09-23T10:13:05.170Z,71.07
2023-09-23T10:16:02.805Z,70.41
2023-09-23T10:19:00.302Z,70.00
2023-09-23T10:21:59.417Z,69.74
2023-09-23T10:24:56.970Z,69.73
2023-09-23T10:27:54.519Z,69.67
2023-09-23T10:30:52.160Z,69.68
2023-09-23T10:33:49.773Z,68.90
2023-09-23T10:36:48.933Z,68.27
2023-09-23T10:39:46.762Z,68.23
2023-09-23T10:42:44.424Z,68.23
2023-09-23T10:45:42.112Z,67.45
2023-09-23T10:48:39.491Z,67.01
2023-09-23T10:51:37.413Z,66.72
2023-09-23T10:54:36.438Z,66.62
2023-09-23T10:57:33.841Z,66.51
2023-09-23T11:00:34.643Z,65.57
2023-09-23T11:03:32.708Z,65.38
2023-09-23T11:06:30.254Z,64.91
2023-09-23T11:09:28.240Z,65.18
2023-09-23T11:12:29.479Z,64.78
2023-09-23T11:15:27.181Z,64.71
2023-09-23T11:18:25.110Z,64.30
2023-09-23T11:21:22.977Z,64.51
2023-09-23T11:24:21.660Z,64.41
2023-09-23T11:27:19.618Z,64.49
2023-09-23T11:30:17.419Z,64.36
2023-09-23T11:33:14.897Z,63.93
2023-09-23T11:36:12.538Z,63.75
2023-09-23T11:39:11.657Z,63.44
2023-09-23T11:42:09.243Z,63.10
2023-09-23T11:45:06.988Z,63.23
2023-09-23T11:48:07.673Z,63.25
2023-09-23T11:51:05.164Z,63.06
2023-09-23T11:54:02.780Z,62.65
2023-09-23T11:57:00.490Z,62.47
2023-09-23T11:59:58.219Z,62.23
2023-09-23T12:02:55.945Z,62.20
2023-09-23T12:05:55.476Z,61.73
2023-09-23T12:08:53.003Z,61.78
2023-09-23T12:11:51.798Z,61.33
2023-09-23T12:14:49.877Z,61.61
2023-09-23T12:17:47.507Z,61.36
2023-09-23T12:20:44.939Z,61.33
2023-09-23T12:23:43.384Z,61.50
2023-09-23T12:26:41.090Z,61.81
2023-09-23T12:29:38.598Z,61.89
2023-09-23T12:32:36.913Z,61.83
2023-09-23T12:35:34.851Z,61.79
2023-09-23T12:38:32.627Z,61.80
2023-09-23T12:41:30.606Z,61.80
2023-09-23T12:44:28.786Z,61.40
2023-09-23T12:47:30.195Z,61.23
2023-09-23T12:50:35.115Z,61.27
2023-09-23T12:53:32.578Z,61.05
2023-09-23T12:56:31.576Z,60.67
2023-09-23T12:59:29.691Z,60.44
2023-09-23T13:02:27.943Z,60.48
2023-09-23T13:05:25.706Z,60.38
2023-09-23T13:08:25.207Z,59.71
2023-09-23T13:11:24.447Z,59.82
2023-09-23T13:14:24.309Z,59.30
2023-09-23T13:17:22.611Z,58.76
2023-09-23T13:20:21.074Z,57.93
2023-09-23T13:23:19.577Z,57.50
2023-09-23T13:26:18.176Z,56.59
2023-09-23T13:29:17.150Z,56.37
2023-09-23T13:32:16.732Z,55.81
2023-09-23T13:35:16.125Z,56.23
2023-09-23T13:38:15.795Z,55.78
2023-09-23T13:41:16.054Z,56.22
2023-09-23T13:44:16.267Z,56.42
2023-09-23T13:47:15.766Z,56.45
2023-09-23T13:50:15.373Z,56.19
2023-09-23T13:53:14.634Z,56.54
2023-09-23T13:56:14.271Z,56.86
2023-09-23T13:59:13.768Z,56.77
2023-09-23T14:02:13.493Z,57.07
2023-09-23T14:05:14.028Z,57.15
2023-09-23T14:08:13.416Z,57.51
2023-09-23T14:11:12.890Z,57.72
2023-09-23T14:14:12.546Z,58.06
2023-09-23T14:17:12.450Z,58.33
2023-09-23T14:20:14.828Z,58.58
2023-09-23T14:23:15.092Z,58.68
2023-09-23T14:26:14.486Z,58.92
2023-09-23T14:29:14.212Z,58.86
2023-09-23T14:32:14.185Z,58.99
2023-09-23T14:35:13.433Z,59.28
2023-09-23T14:38:13.277Z,59.42
2023-09-23T14:41:12.819Z,59.59
2023-09-23T14:44:12.336Z,59.75
2023-09-23T14:47:11.828Z,60.07
2023-09-23T14:50:13.411Z,60.38
2023-09-23T14:53:12.743Z,60.63
2023-09-23T14:56:12.532Z,60.49
2023-09-23T14:59:12.634Z,60.90
2023-09-23T15:02:12.505Z,61.25
2023-09-23T15:05:12.267Z,61.47
2023-09-23T15:08:12.355Z,61.59
2023-09-23T15:11:11.977Z,61.79
2023-09-23T15:14:12.300Z,61.79
2023-09-23T15:17:15.901Z,61.95
2023-09-23T15:20:15.813Z,61.98
2023-09-23T15:23:15.578Z,62.24
2023-09-23T15:26:15.212Z,62.42
2023-09-23T15:29:15.015Z,62.44
2023-09-23T15:32:14.580Z,62.51
2023-09-23T15:35:14.872Z,62.71
2023-09-23T15:38:14.844Z,62.74
2023-09-23T15:41:14.256Z,62.66
2023-09-23T15:44:14.413Z,62.59
2023-09-23T15:47:14.228Z,62.46
2023-09-23T15:50:13.821Z,62.37
2023-09-23T15:53:13.220Z,62.21
2023-09-23T15:56:13.484Z,62.24
2023-09-23T15:59:12.849Z,62.30
2023-09-23T16:02:12.420Z,62.49
2023-09-23T16:05:12.398Z,62.50
2023-09-23T16:08:12.015Z,62.56
2023-09-23T16:11:11.435Z,62.66
2023-09-23T16:14:11.846Z,62.83
2023-09-23T16:17:14.394Z,63.11
2023-09-23T16:20:14.165Z,63.09
2023-09-23T16:23:13.993Z,63.28
2023-09-23T16:26:14.670Z,63.12
2023-09-23T16:29:14.722Z,63.18
2023-09-23T16:32:14.381Z,63.29
2023-09-23T16:35:13.866Z,63.44
2023-09-23T16:38:13.492Z,63.39
2023-09-23T16:41:12.875Z,63.67
2023-09-23T16:44:13.883Z,63.75
2023-09-23T16:47:13.240Z,63.89
2023-09-23T16:50:12.988Z,64.05
2023-09-23T16:53:13.502Z,64.26
2023-09-23T16:56:13.383Z,64.42
2023-09-23T16:59:12.907Z,64.87
2023-09-23T17:02:13.034Z,64.71
2023-09-23T17:05:12.428Z,64.47
2023-09-23T17:08:11.633Z,64.40
2023-09-23T17:11:11.529Z,64.36
2023-09-23T17:14:10.629Z,64.40
2023-09-23T17:17:09.751Z,64.28
2023-09-23T17:20:08.911Z,64.28
2023-09-23T17:23:08.473Z,64.09
2023-09-23T17:26:07.516Z,64.23
2023-09-23T17:29:08.558Z,64.24
2023-09-23T17:32:08.128Z,64.23
2023-09-23T17:35:07.833Z,64.15
2023-09-23T17:38:07.944Z,64.23
2023-09-23T17:41:07.556Z,64.11
2023-09-23T17:44:07.680Z,64.05
2023-09-23T17:47:08.223Z,64.06
2023-09-23T17:50:08.493Z,64.08
2023-09-23T17:53:09.485Z,64.09
2023-09-23T17:56:09.468Z,64.06
2023-09-23T17:59:10.841Z,64.05
2023-09-23T18:02:11.266Z,64.01
2023-09-23T18:05:16.096Z,64.09
2023-09-23T18:08:21.265Z,64.10
2023-09-23T18:11:21.245Z,64.18
2023-09-23T18:14:21.193Z,64.32
2023-09-23T18:17:21.240Z,64.47
2023-09-23T18:20:26.433Z,64.53
2023-09-23T18:23:26.281Z,64.48
2023-09-23T18:26:26.407Z,64.63
2023-09-23T18:29:26.137Z,64.53
2023-09-23T18:32:33.267Z,64.77
2023-09-23T18:35:34.161Z,64.93
2023-09-23T18:38:34.130Z,65.30
2023-09-23T18:41:35.375Z,65.23
2023-09-23T18:44:35.288Z,65.07
2023-09-23T18:47:35.362Z,64.97
2023-09-23T18:50:40.044Z,65.17
2023-09-23T18:53:40.047Z,65.29
2023-09-23T18:56:40.153Z,65.16
2023-09-23T18:59:39.834Z,65.21
2023-09-23T19:02:40.442Z,65.20
2023-09-23T19:05:40.905Z,65.05
2023-09-23T19:08:41.714Z,65.11
2023-09-23T19:11:41.849Z,65.03
2023-09-23T19:14:44.682Z,65.12
2023-09-23T19:17:44.394Z,65.30
2023-09-23T19:20:44.636Z,65.35
2023-09-23T19:23:44.476Z,65.35
2023-09-23T19:26:55.660Z,65.38
2023-09-23T19:29:56.890Z,65.24
2023-09-23T19:32:58.208Z,65.25
2023-09-23T19:36:00.779Z,65.17
2023-09-23T19:39:03.097Z,65.11
2023-09-23T19:42:05.579Z,65.08
2023-09-23T19:45:06.989Z,64.91
2023-09-23T19:48:08.546Z,64.82
2023-09-23T19:51:10.680Z,64.68
2023-09-23T19:54:12.208Z,64.68
2023-09-23T19:57:12.027Z,64.52
2023-09-23T20:00:15.569Z,64.38
2023-09-23T20:03:16.298Z,64.49
2023-09-23T20:06:16.789Z,64.64
2023-09-23T20:09:16.692Z,64.73
2023-09-23T20:12:19.490Z,64.82
2023-09-23T20:15:22.184Z,64.91
2023-09-23T20:18:22.129Z,65.18
2023-09-23T20:21:21.718Z,65.20
2023-09-23T20:24:21.217Z,65.40
2023-09-23T20:27:21.265Z,65.46
2023-09-23T20:30:20.742Z,65.54
2023-09-23T20:33:23.723Z,65.64
2023-09-23T20:36:23.756Z,65.68
2023-09-23T20:39:25.925Z,65.86
2023-09-23T20:42:26.149Z,65.93
2023-09-23T20:45:27.508Z,66.01
2023-09-23T20:48:29.158Z,65.93
2023-09-23T20:51:28.918Z,66.08
2023-09-23T20:54:28.226Z,66.18
2023-09-23T20:57:37.208Z,66.15
2023-09-23T21:00:36.577Z,66.15
2023-09-23T21:03:34.889Z,66.11
2023-09-23T21:06:32.655Z,66.12
2023-09-23T21:09:30.433Z,66.19
2023-09-23T21:12:27.902Z,66.11
2023-09-23T21:15:26.514Z,66.02
2023-09-23T21:18:24.061Z,66.07
2023-09-23T21:21:21.715Z,66.21
2023-09-23T21:24:19.182Z,66.22
2023-09-23T21:27:16.922Z,66.14
2023-09-23T21:30:14.392Z,66.09
2023-09-23T21:33:12.121Z,66.15
2023-09-23T21:36:09.598Z,66.10
2023-09-23T21:39:07.186Z,65.88
2023-09-23T21:42:04.607Z,65.84
2023-09-23T21:45:02.584Z,65.82
2023-09-23T21:48:02.317Z,65.74
2023-09-23T21:51:00.174Z,65.71
2023-09-23T21:53:58.346Z,65.66
2023-09-23T21:56:56.362Z,65.67
2023-09-23T21:59:53.867Z,65.69
2023-09-23T22:02:51.572Z,65.75
2023-09-23T22:05:49.277Z,65.81
2023-09-23T22:08:50.032Z,65.95
2023-09-23T22:11:48.091Z,65.79
2023-09-23T22:14:46.711Z,65.97
2023-09-23T22:17:44.523Z,66.11
2023-09-23T22:20:45.932Z,66.20
2023-09-23T22:23:43.754Z,66.31
2023-09-23T22:26:42.153Z,66.53
2023-09-23T22:29:40.124Z,66.61
2023-09-23T22:32:38.253Z,66.71
2023-09-23T22:35:36.376Z,67.04
2023-09-23T22:38:34.067Z,67.14
2023-09-23T22:41:32.038Z,67.31
2023-09-23T22:44:30.075Z,67.30
2023-09-23T22:47:27.808Z,67.26
2023-09-23T22:50:26.246Z,67.49
2023-09-23T22:53:24.126Z,67.42
2023-09-23T22:56:21.870Z,67.57
2023-09-23T22:59:20.349Z,67.56
2023-09-23T23:02:18.045Z,67.68
2023-09-23T23:05:16.296Z,67.74
2023-09-23T23:08:14.450Z,67.85
2023-09-23T23:11:12.121Z,67.99
2023-09-23T23:14:09.587Z,67.90
2023-09-23T23:17:08.903Z,68.12
2023-09-23T23:20:10.345Z,68.18
2023-09-23T23:23:08.021Z,68.19
2023-09-23T23:26:05.897Z,68.19
2023-09-23T23:29:03.771Z,68.38
2023-09-23T23:32:01.400Z,68.32
2023-09-23T23:34:59.197Z,68.31
2023-09-23T23:37:56.885Z,68.29
2023-09-23T23:40:56.058Z,68.31
2023-09-23T23:43:53.920Z,68.52
2023-09-23T23:46:52.493Z,68.47
2023-09-23T23:49:51.406Z,68.59
2023-09-23T23:52:50.526Z,68.62
2023-09-23T23:55:49.142Z,68.67
2023-09-23T23:58:47.676Z,68.67
